sensor_id;sensor_type;location;lat;lon;timestamp;P1;durP1;ratioP1;P2;durP2;ratioP2
51764;SDS011;37835;53.256;6.456;2023-07-31T00:00:07;7.50;;;4.13;;
51764;SDS011;37835;53.256;6.456;2023-07-31T00:02:36;9.55;;;4.10;;
51764;SDS011;37835;53.256;6.456;2023-07-31T00:05:01;6.93;;;4.20;;
51764;SDS011;37835;53.256;6.456;2023-07-31T00:07:27;10.27;;;4.70;;
51764;SDS011;37835;53.256;6.456;2023-07-31T00:09:53;11.48;;;4.80;;
51764;SDS011;37835;53.256;6.456;2023-07-31T00:12:19;8.13;;;5.35;;
51764;SDS011;37835;53.256;6.456;2023-07-31T00:14:45;7.20;;;5.00;;
51764;SDS011;37835;53.256;6.456;2023-07-31T00:17:11;6.43;;;4.82;;
51764;SDS011;37835;53.256;6.456;2023-07-31T00:19:36;7.43;;;4.70;;
51764;SDS011;37835;53.256;6.456;2023-07-31T00:22:02;7.90;;;4.47;;
51764;SDS011;37835;53.256;6.456;2023-07-31T00:24:28;10.25;;;4.80;;
51764;SDS011;37835;53.256;6.456;2023-07-31T00:26:54;6.15;;;4.25;;
51764;SDS011;37835;53.256;6.456;2023-07-31T00:29:19;4.90;;;3.22;;
51764;SDS011;37835;53.256;6.456;2023-07-31T00:31:45;3.60;;;2.58;;
51764;SDS011;37835;53.256;6.456;2023-07-31T00:34:10;2.58;;;2.38;;
51764;SDS011;37835;53.256;6.456;2023-07-31T00:36:36;5.32;;;2.72;;
51764;SDS011;37835;53.256;6.456;2023-07-31T00:39:01;10.02;;;3.10;;
51764;SDS011;37835;53.256;6.456;2023-07-31T00:41:27;5.13;;;3.22;;
51764;SDS011;37835;53.256;6.456;2023-07-31T00:43:53;3.83;;;3.45;;
51764;SDS011;37835;53.256;6.456;2023-07-31T00:46:18;4.13;;;2.72;;
51764;SDS011;37835;53.256;6.456;2023-07-31T00:48:44;5.75;;;3.60;;
51764;SDS011;37835;53.256;6.456;2023-07-31T00:51:10;5.35;;;3.88;;
51764;SDS011;37835;53.256;6.456;2023-07-31T00:53:36;4.18;;;3.63;;
51764;SDS011;37835;53.256;6.456;2023-07-31T00:56:02;5.03;;;3.10;;
51764;SDS011;37835;53.256;6.456;2023-07-31T00:58:29;3.10;;;2.90;;
51764;SDS011;37835;53.256;6.456;2023-07-31T01:00:55;3.22;;;2.92;;
51764;SDS011;37835;53.256;6.456;2023-07-31T01:03:20;3.53;;;3.22;;
51764;SDS011;37835;53.256;6.456;2023-07-31T01:05:49;3.90;;;3.22;;
51764;SDS011;37835;53.256;6.456;2023-07-31T01:08:37;3.13;;;2.92;;
51764;SDS011;37835;53.256;6.456;2023-07-31T01:11:21;3.28;;;3.05;;
51764;SDS011;37835;53.256;6.456;2023-07-31T01:13:53;5.80;;;2.67;;
51764;SDS011;37835;53.256;6.456;2023-07-31T01:16:20;3.85;;;2.53;;
51764;SDS011;37835;53.256;6.456;2023-07-31T01:18:45;2.67;;;2.47;;
51764;SDS011;37835;53.256;6.456;2023-07-31T01:21:21;3.47;;;2.22;;
51764;SDS011;37835;53.256;6.456;2023-07-31T01:26:34;2.92;;;2.05;;
51764;SDS011;37835;53.256;6.456;2023-07-31T01:29:01;2.05;;;1.80;;
51764;SDS011;37835;53.256;6.456;2023-07-31T01:31:34;3.55;;;1.60;;
51764;SDS011;37835;53.256;6.456;2023-07-31T01:34:02;2.25;;;1.75;;
51764;SDS011;37835;53.256;6.456;2023-07-31T01:36:28;3.92;;;2.17;;
51764;SDS011;37835;53.256;6.456;2023-07-31T01:38:59;2.53;;;2.33;;
51764;SDS011;37835;53.256;6.456;2023-07-31T01:41:25;3.05;;;2.60;;
51764;SDS011;37835;53.256;6.456;2023-07-31T01:43:51;3.30;;;2.97;;
51764;SDS011;37835;53.256;6.456;2023-07-31T01:46:17;3.45;;;2.60;;
51764;SDS011;37835;53.256;6.456;2023-07-31T01:48:42;4.18;;;2.97;;
51764;SDS011;37835;53.256;6.456;2023-07-31T01:51:08;2.83;;;2.63;;
51764;SDS011;37835;53.256;6.456;2023-07-31T01:53:33;3.10;;;2.80;;
51764;SDS011;37835;53.256;6.456;2023-07-31T01:55:59;4.20;;;3.05;;
51764;SDS011;37835;53.256;6.456;2023-07-31T01:58:25;3.40;;;3.10;;
51764;SDS011;37835;53.256;6.456;2023-07-31T02:00:50;5.05;;;3.63;;
51764;SDS011;37835;53.256;6.456;2023-07-31T02:03:16;3.38;;;2.83;;
51764;SDS011;37835;53.256;6.456;2023-07-31T02:05:45;5.22;;;2.92;;
51764;SDS011;37835;53.256;6.456;2023-07-31T02:08:11;3.90;;;2.92;;
51764;SDS011;37835;53.256;6.456;2023-07-31T02:10:36;3.60;;;2.78;;
51764;SDS011;37835;53.256;6.456;2023-07-31T02:13:02;6.25;;;2.83;;
51764;SDS011;37835;53.256;6.456;2023-07-31T02:15:29;2.65;;;2.45;;
51764;SDS011;37835;53.256;6.456;2023-07-31T02:17:55;7.22;;;2.88;;
51764;SDS011;37835;53.256;6.456;2023-07-31T02:20:20;3.33;;;2.20;;
51764;SDS011;37835;53.256;6.456;2023-07-31T02:22:46;3.55;;;2.60;;
51764;SDS011;37835;53.256;6.456;2023-07-31T02:25:11;2.53;;;1.98;;
51764;SDS011;37835;53.256;6.456;2023-07-31T02:27:37;2.55;;;2.35;;
51764;SDS011;37835;53.256;6.456;2023-07-31T02:30:02;2.40;;;2.20;;
51764;SDS011;37835;53.256;6.456;2023-07-31T02:32:28;3.55;;;2.38;;
51764;SDS011;37835;53.256;6.456;2023-07-31T02:34:54;3.95;;;2.30;;
51764;SDS011;37835;53.256;6.456;2023-07-31T02:37:19;3.38;;;2.17;;
51764;SDS011;37835;53.256;6.456;2023-07-31T02:39:45;2.70;;;2.50;;
51764;SDS011;37835;53.256;6.456;2023-07-31T02:42:11;3.55;;;2.25;;
51764;SDS011;37835;53.256;6.456;2023-07-31T02:44:36;2.33;;;2.10;;
51764;SDS011;37835;53.256;6.456;2023-07-31T02:47:02;3.28;;;2.20;;
51764;SDS011;37835;53.256;6.456;2023-07-31T02:49:28;2.88;;;2.28;;
51764;SDS011;37835;53.256;6.456;2023-07-31T02:51:53;4.32;;;2.47;;
51764;SDS011;37835;53.256;6.456;2023-07-31T02:54:19;5.47;;;2.50;;
51764;SDS011;37835;53.256;6.456;2023-07-31T02:56:46;5.47;;;3.00;;
51764;SDS011;37835;53.256;6.456;2023-07-31T02:59:12;4.20;;;2.55;;
51764;SDS011;37835;53.256;6.456;2023-07-31T03:01:38;2.60;;;2.40;;
51764;SDS011;37835;53.256;6.456;2023-07-31T03:04:03;3.10;;;2.30;;
51764;SDS011;37835;53.256;6.456;2023-07-31T03:06:29;3.90;;;2.33;;
51764;SDS011;37835;53.256;6.456;2023-07-31T03:08:55;3.53;;;2.63;;
51764;SDS011;37835;53.256;6.456;2023-07-31T03:11:21;2.25;;;2.05;;
51764;SDS011;37835;53.256;6.456;2023-07-31T03:13:46;3.78;;;1.90;;
51764;SDS011;37835;53.256;6.456;2023-07-31T03:16:12;2.83;;;1.90;;
51764;SDS011;37835;53.256;6.456;2023-07-31T03:18:37;2.67;;;2.20;;
51764;SDS011;37835;53.256;6.456;2023-07-31T03:21:03;3.22;;;2.50;;
51764;SDS011;37835;53.256;6.456;2023-07-31T03:23:29;7.68;;;2.00;;
51764;SDS011;37835;53.256;6.456;2023-07-31T03:25:56;4.00;;;2.30;;
51764;SDS011;37835;53.256;6.456;2023-07-31T03:28:25;5.47;;;2.58;;
51764;SDS011;37835;53.256;6.456;2023-07-31T03:30:51;4.40;;;2.35;;
51764;SDS011;37835;53.256;6.456;2023-07-31T03:33:18;4.15;;;2.20;;
51764;SDS011;37835;53.256;6.456;2023-07-31T03:35:43;2.50;;;2.30;;
51764;SDS011;37835;53.256;6.456;2023-07-31T03:38:09;2.40;;;2.20;;
51764;SDS011;37835;53.256;6.456;2023-07-31T03:40:35;1.90;;;1.80;;
51764;SDS011;37835;53.256;6.456;2023-07-31T03:43:00;3.30;;;2.30;;
51764;SDS011;37835;53.256;6.456;2023-07-31T03:45:26;2.10;;;2.00;;
51764;SDS011;37835;53.256;6.456;2023-07-31T03:47:51;1.90;;;1.80;;
51764;SDS011;37835;53.256;6.456;2023-07-31T03:50:18;3.42;;;2.40;;
51764;SDS011;37835;53.256;6.456;2023-07-31T03:52:44;2.78;;;1.63;;
51764;SDS011;37835;53.256;6.456;2023-07-31T03:55:09;1.70;;;1.60;;
51764;SDS011;37835;53.256;6.456;2023-07-31T03:57:35;2.75;;;1.60;;
51764;SDS011;37835;53.256;6.456;2023-07-31T04:00:00;2.42;;;1.50;;
51764;SDS011;37835;53.256;6.456;2023-07-31T04:02:26;3.35;;;1.50;;
51764;SDS011;37835;53.256;6.456;2023-07-31T04:04:51;3.83;;;1.50;;
51764;SDS011;37835;53.256;6.456;2023-07-31T04:07:17;2.38;;;1.17;;
51764;SDS011;37835;53.256;6.456;2023-07-31T04:09:42;2.20;;;1.10;;
51764;SDS011;37835;53.256;6.456;2023-07-31T04:12:08;2.13;;;1.00;;
51764;SDS011;37835;53.256;6.456;2023-07-31T04:14:34;2.58;;;1.23;;
51764;SDS011;37835;53.256;6.456;2023-07-31T04:16:59;2.28;;;1.15;;
51764;SDS011;37835;53.256;6.456;2023-07-31T04:19:25;2.20;;;1.30;;
51764;SDS011;37835;53.256;6.456;2023-07-31T04:21:50;1.10;;;1.00;;
51764;SDS011;37835;53.256;6.456;2023-07-31T04:24:16;2.65;;;1.25;;
51764;SDS011;37835;53.256;6.456;2023-07-31T04:26:47;1.90;;;1.02;;
51764;SDS011;37835;53.256;6.456;2023-07-31T04:29:12;2.05;;;1.08;;
51764;SDS011;37835;53.256;6.456;2023-07-31T04:31:38;4.00;;;1.27;;
51764;SDS011;37835;53.256;6.456;2023-07-31T04:34:03;3.47;;;1.30;;
51764;SDS011;37835;53.256;6.456;2023-07-31T04:36:29;1.83;;;1.02;;
51764;SDS011;37835;53.256;6.456;2023-07-31T04:38:55;1.33;;;1.15;;
51764;SDS011;37835;53.256;6.456;2023-07-31T04:41:20;2.45;;;1.25;;
51764;SDS011;37835;53.256;6.456;2023-07-31T04:43:46;1.45;;;1.30;;
51764;SDS011;37835;53.256;6.456;2023-07-31T04:46:12;1.33;;;1.10;;
51764;SDS011;37835;53.256;6.456;2023-07-31T04:48:37;2.08;;;1.13;;
51764;SDS011;37835;53.256;6.456;2023-07-31T04:51:03;2.55;;;0.90;;
51764;SDS011;37835;53.256;6.456;2023-07-31T04:53:28;1.25;;;0.75;;
51764;SDS011;37835;53.256;6.456;2023-07-31T04:55:54;1.17;;;0.80;;
51764;SDS011;37835;53.256;6.456;2023-07-31T04:58:19;1.13;;;0.80;;
51764;SDS011;37835;53.256;6.456;2023-07-31T05:00:47;2.30;;;1.13;;
51764;SDS011;37835;53.256;6.456;2023-07-31T05:03:13;1.70;;;0.80;;
51764;SDS011;37835;53.256;6.456;2023-07-31T05:05:38;2.28;;;0.75;;
51764;SDS011;37835;53.256;6.456;2023-07-31T05:08:04;1.05;;;0.60;;
51764;SDS011;37835;53.256;6.456;2023-07-31T05:10:29;0.75;;;0.52;;
51764;SDS011;37835;53.256;6.456;2023-07-31T05:12:55;1.30;;;0.75;;
51764;SDS011;37835;53.256;6.456;2023-07-31T05:15:21;1.08;;;0.85;;
51764;SDS011;37835;53.256;6.456;2023-07-31T05:17:46;2.55;;;0.50;;
51764;SDS011;37835;53.256;6.456;2023-07-31T05:20:12;0.57;;;0.57;;
51764;SDS011;37835;53.256;6.456;2023-07-31T05:22:38;1.55;;;0.80;;
51764;SDS011;37835;53.256;6.456;2023-07-31T05:25:03;0.90;;;0.70;;
51764;SDS011;37835;53.256;6.456;2023-07-31T05:27:32;0.88;;;0.70;;
51764;SDS011;37835;53.256;6.456;2023-07-31T05:29:58;0.93;;;0.65;;
51764;SDS011;37835;53.256;6.456;2023-07-31T05:32:23;2.28;;;0.55;;
51764;SDS011;37835;53.256;6.456;2023-07-31T05:34:52;0.68;;;0.30;;
51764;SDS011;37835;53.256;6.456;2023-07-31T05:37:18;3.30;;;0.30;;
51764;SDS011;37835;53.256;6.456;2023-07-31T05:39:44;3.20;;;0.35;;
51764;SDS011;37835;53.256;6.456;2023-07-31T05:42:10;0.30;;;0.20;;
51764;SDS011;37835;53.256;6.456;2023-07-31T05:44:35;0.40;;;0.35;;
51764;SDS011;37835;53.256;6.456;2023-07-31T05:47:01;2.00;;;0.38;;
51764;SDS011;37835;53.256;6.456;2023-07-31T05:49:27;0.38;;;0.38;;
51764;SDS011;37835;53.256;6.456;2023-07-31T05:51:52;1.98;;;0.57;;
51764;SDS011;37835;53.256;6.456;2023-07-31T05:54:18;1.73;;;0.45;;
51764;SDS011;37835;53.256;6.456;2023-07-31T05:56:44;0.35;;;0.35;;
51764;SDS011;37835;53.256;6.456;2023-07-31T05:59:11;0.50;;;0.50;;
51764;SDS011;37835;53.256;6.456;2023-07-31T06:01:38;0.95;;;0.47;;
51764;SDS011;37835;53.256;6.456;2023-07-31T06:04:04;0.38;;;0.38;;
51764;SDS011;37835;53.256;6.456;2023-07-31T06:06:30;0.63;;;0.50;;
51764;SDS011;37835;53.256;6.456;2023-07-31T06:08:55;1.50;;;0.60;;
51764;SDS011;37835;53.256;6.456;2023-07-31T06:11:21;1.50;;;0.60;;
51764;SDS011;37835;53.256;6.456;2023-07-31T06:13:47;2.30;;;0.55;;
51764;SDS011;37835;53.256;6.456;2023-07-31T06:16:14;1.33;;;0.80;;
51764;SDS011;37835;53.256;6.456;2023-07-31T06:18:40;0.82;;;0.68;;
51764;SDS011;37835;53.256;6.456;2023-07-31T06:21:06;1.83;;;0.88;;
51764;SDS011;37835;53.256;6.456;2023-07-31T06:23:32;1.08;;;1.02;;
51764;SDS011;37835;53.256;6.456;2023-07-31T06:25:58;1.90;;;1.20;;
51764;SDS011;37835;53.256;6.456;2023-07-31T06:28:29;1.83;;;1.25;;
51764;SDS011;37835;53.256;6.456;2023-07-31T06:30:56;1.55;;;1.45;;
51764;SDS011;37835;53.256;6.456;2023-07-31T06:33:22;2.60;;;1.38;;
51764;SDS011;37835;53.256;6.456;2023-07-31T06:35:48;2.13;;;1.90;;
51764;SDS011;37835;53.256;6.456;2023-07-31T06:38:13;4.57;;;1.98;;
51764;SDS011;37835;53.256;6.456;2023-07-31T06:40:39;3.65;;;2.30;;
51764;SDS011;37835;53.256;6.456;2023-07-31T06:43:05;6.55;;;2.85;;
51764;SDS011;37835;53.256;6.456;2023-07-31T06:45:34;6.70;;;2.80;;
51764;SDS011;37835;53.256;6.456;2023-07-31T06:48:01;8.65;;;3.80;;
51764;SDS011;37835;53.256;6.456;2023-07-31T06:50:28;9.20;;;3.72;;
51764;SDS011;37835;53.256;6.456;2023-07-31T06:52:53;12.02;;;4.03;;
51764;SDS011;37835;53.256;6.456;2023-07-31T06:55:20;10.75;;;4.47;;
51764;SDS011;37835;53.256;6.456;2023-07-31T06:57:49;12.65;;;4.28;;
51764;SDS011;37835;53.256;6.456;2023-07-31T07:00:17;15.88;;;4.72;;
51764;SDS011;37835;53.256;6.456;2023-07-31T07:02:45;16.70;;;5.43;;
51764;SDS011;37835;53.256;6.456;2023-07-31T07:05:14;17.33;;;5.47;;
51764;SDS011;37835;53.256;6.456;2023-07-31T07:07:41;21.38;;;6.47;;
51764;SDS011;37835;53.256;6.456;2023-07-31T07:10:07;19.73;;;7.00;;
51764;SDS011;37835;53.256;6.456;2023-07-31T07:12:33;22.38;;;6.57;;
51764;SDS011;37835;53.256;6.456;2023-07-31T07:15:00;25.67;;;7.35;;
51764;SDS011;37835;53.256;6.456;2023-07-31T07:17:26;23.42;;;6.75;;
51764;SDS011;37835;53.256;6.456;2023-07-31T07:19:53;23.45;;;7.43;;
51764;SDS011;37835;53.256;6.456;2023-07-31T07:22:20;20.67;;;6.40;;
51764;SDS011;37835;53.256;6.456;2023-07-31T07:24:45;16.23;;;5.93;;
51764;SDS011;37835;53.256;6.456;2023-07-31T07:27:11;15.35;;;4.72;;
51764;SDS011;37835;53.256;6.456;2023-07-31T07:29:37;11.48;;;3.97;;
51764;SDS011;37835;53.256;6.456;2023-07-31T07:32:03;10.23;;;4.00;;
51764;SDS011;37835;53.256;6.456;2023-07-31T07:34:29;12.38;;;4.18;;
51764;SDS011;37835;53.256;6.456;2023-07-31T07:36:55;17.17;;;5.53;;
51764;SDS011;37835;53.256;6.456;2023-07-31T07:39:20;12.63;;;4.53;;
51764;SDS011;37835;53.256;6.456;2023-07-31T07:41:46;13.70;;;4.55;;
51764;SDS011;37835;53.256;6.456;2023-07-31T07:44:13;16.98;;;4.47;;
51764;SDS011;37835;53.256;6.456;2023-07-31T07:46:39;17.17;;;4.15;;
51764;SDS011;37835;53.256;6.456;2023-07-31T07:49:05;12.80;;;4.22;;
51764;SDS011;37835;53.256;6.456;2023-07-31T07:51:30;12.10;;;3.72;;
51764;SDS011;37835;53.256;6.456;2023-07-31T07:53:56;10.35;;;4.05;;
51764;SDS011;37835;53.256;6.456;2023-07-31T07:56:23;8.82;;;3.28;;
51764;SDS011;37835;53.256;6.456;2023-07-31T07:58:50;8.80;;;3.45;;
51764;SDS011;37835;53.256;6.456;2023-07-31T08:01:16;8.98;;;2.95;;
51764;SDS011;37835;53.256;6.456;2023-07-31T08:03:42;9.02;;;3.00;;
51764;SDS011;37835;53.256;6.456;2023-07-31T08:06:07;12.32;;;4.07;;
51764;SDS011;37835;53.256;6.456;2023-07-31T08:08:37;9.77;;;2.80;;
51764;SDS011;37835;53.256;6.456;2023-07-31T08:11:03;3.72;;;1.80;;
51764;SDS011;37835;53.256;6.456;2023-07-31T08:13:28;1.50;;;0.75;;
51764;SDS011;37835;53.256;6.456;2023-07-31T08:15:54;0.90;;;0.40;;
51764;SDS011;37835;53.256;6.456;2023-07-31T08:18:20;0.90;;;0.60;;
51764;SDS011;37835;53.256;6.456;2023-07-31T08:20:46;0.70;;;0.50;;
51764;SDS011;37835;53.256;6.456;2023-07-31T08:23:11;1.38;;;0.43;;
51764;SDS011;37835;53.256;6.456;2023-07-31T08:25:37;1.48;;;0.43;;
51764;SDS011;37835;53.256;6.456;2023-07-31T08:28:03;1.00;;;0.60;;
51764;SDS011;37835;53.256;6.456;2023-07-31T08:30:29;0.50;;;0.47;;
51764;SDS011;37835;53.256;6.456;2023-07-31T08:32:55;0.60;;;0.30;;
51764;SDS011;37835;53.256;6.456;2023-07-31T08:35:21;0.90;;;0.50;;
51764;SDS011;37835;53.256;6.456;2023-07-31T08:37:46;0.43;;;0.20;;
51764;SDS011;37835;53.256;6.456;2023-07-31T08:40:12;0.32;;;0.32;;
51764;SDS011;37835;53.256;6.456;2023-07-31T08:42:43;0.63;;;0.52;;
51764;SDS011;37835;53.256;6.456;2023-07-31T08:45:11;0.35;;;0.20;;
51764;SDS011;37835;53.256;6.456;2023-07-31T08:47:40;0.32;;;0.20;;
51764;SDS011;37835;53.256;6.456;2023-07-31T08:50:07;0.20;;;0.20;;
51764;SDS011;37835;53.256;6.456;2023-07-31T08:52:33;0.22;;;0.20;;
51764;SDS011;37835;53.256;6.456;2023-07-31T08:54:59;1.48;;;0.25;;
51764;SDS011;37835;53.256;6.456;2023-07-31T08:57:25;1.65;;;0.30;;
51764;SDS011;37835;53.256;6.456;2023-07-31T08:59:50;1.90;;;0.30;;
51764;SDS011;37835;53.256;6.456;2023-07-31T09:02:17;0.32;;;0.30;;
51764;SDS011;37835;53.256;6.456;2023-07-31T09:04:44;0.50;;;0.43;;
51764;SDS011;37835;53.256;6.456;2023-07-31T09:07:10;0.20;;;0.20;;
51764;SDS011;37835;53.256;6.456;2023-07-31T09:09:38;0.20;;;0.20;;
51764;SDS011;37835;53.256;6.456;2023-07-31T09:12:04;1.92;;;0.30;;
51764;SDS011;37835;53.256;6.456;2023-07-31T09:14:30;0.47;;;0.20;;
51764;SDS011;37835;53.256;6.456;2023-07-31T09:16:56;0.20;;;0.20;;
51764;SDS011;37835;53.256;6.456;2023-07-31T09:19:25;0.15;;;0.10;;
51764;SDS011;37835;53.256;6.456;2023-07-31T09:21:52;0.95;;;0.20;;
51764;SDS011;37835;53.256;6.456;2023-07-31T09:24:28;0.10;;;0.10;;
51764;SDS011;37835;53.256;6.456;2023-07-31T09:26:55;0.47;;;0.17;;
51764;SDS011;37835;53.256;6.456;2023-07-31T09:29:22;0.20;;;0.17;;
51764;SDS011;37835;53.256;6.456;2023-07-31T09:31:48;0.28;;;0.10;;
51764;SDS011;37835;53.256;6.456;2023-07-31T09:34:14;0.20;;;0.10;;
51764;SDS011;37835;53.256;6.456;2023-07-31T09:36:43;0.28;;;0.20;;
51764;SDS011;37835;53.256;6.456;2023-07-31T09:39:10;0.30;;;0.10;;
51764;SDS011;37835;53.256;6.456;2023-07-31T09:41:38;0.00;;;0.00;;
51764;SDS011;37835;53.256;6.456;2023-07-31T09:44:04;0.20;;;0.10;;
51764;SDS011;37835;53.256;6.456;2023-07-31T09:46:31;1.77;;;0.00;;
51764;SDS011;37835;53.256;6.456;2023-07-31T09:49:09;0.20;;;0.05;;
51764;SDS011;37835;53.256;6.456;2023-07-31T09:51:37;1.60;;;0.10;;
51764;SDS011;37835;53.256;6.456;2023-07-31T09:56:43;0.35;;;0.10;;
51764;SDS011;37835;53.256;6.456;2023-07-31T09:59:17;0.13;;;0.00;;
51764;SDS011;37835;53.256;6.456;2023-07-31T10:01:44;0.40;;;0.10;;
51764;SDS011;37835;53.256;6.456;2023-07-31T10:04:12;0.68;;;0.22;;
51764;SDS011;37835;53.256;6.456;2023-07-31T10:06:39;0.10;;;0.08;;
51764;SDS011;37835;53.256;6.456;2023-07-31T10:09:08;1.80;;;0.20;;
51764;SDS011;37835;53.256;6.456;2023-07-31T10:11:38;1.30;;;0.10;;
51764;SDS011;37835;53.256;6.456;2023-07-31T10:14:07;0.65;;;0.10;;
51764;SDS011;37835;53.256;6.456;2023-07-31T10:16:34;2.13;;;0.60;;
51764;SDS011;37835;53.256;6.456;2023-07-31T10:19:02;1.35;;;0.70;;
51764;SDS011;37835;53.256;6.456;2023-07-31T10:21:29;4.18;;;1.00;;
51764;SDS011;37835;53.256;6.456;2023-07-31T10:24:01;2.13;;;0.90;;
51764;SDS011;37835;53.256;6.456;2023-07-31T10:26:29;2.50;;;0.90;;
51764;SDS011;37835;53.256;6.456;2023-07-31T10:28:55;1.83;;;0.77;;
51764;SDS011;37835;53.256;6.456;2023-07-31T10:31:22;4.53;;;1.15;;
51764;SDS011;37835;53.256;6.456;2023-07-31T10:33:49;2.67;;;1.30;;
51764;SDS011;37835;53.256;6.456;2023-07-31T10:36:17;1.80;;;0.85;;
51764;SDS011;37835;53.256;6.456;2023-07-31T10:38:44;1.80;;;0.70;;
51764;SDS011;37835;53.256;6.456;2023-07-31T10:41:10;1.25;;;0.68;;
51764;SDS011;37835;53.256;6.456;2023-07-31T10:43:36;0.73;;;0.47;;
51764;SDS011;37835;53.256;6.456;2023-07-31T10:46:06;0.70;;;0.38;;
51764;SDS011;37835;53.256;6.456;2023-07-31T10:48:33;0.65;;;0.40;;
51764;SDS011;37835;53.256;6.456;2023-07-31T10:51:06;0.40;;;0.35;;
51764;SDS011;37835;53.256;6.456;2023-07-31T10:53:34;0.35;;;0.17;;
51764;SDS011;37835;53.256;6.456;2023-07-31T10:56:03;1.17;;;0.20;;
51764;SDS011;37835;53.256;6.456;2023-07-31T10:58:40;0.28;;;0.20;;
51764;SDS011;37835;53.256;6.456;2023-07-31T11:01:09;1.45;;;0.30;;
51764;SDS011;37835;53.256;6.456;2023-07-31T11:03:42;0.68;;;0.20;;
51764;SDS011;37835;53.256;6.456;2023-07-31T11:06:13;0.40;;;0.10;;
51764;SDS011;37835;53.256;6.456;2023-07-31T11:08:43;0.17;;;0.00;;
51764;SDS011;37835;53.256;6.456;2023-07-31T11:11:16;0.20;;;0.13;;
51764;SDS011;37835;53.256;6.456;2023-07-31T11:13:50;0.30;;;0.13;;
51764;SDS011;37835;53.256;6.456;2023-07-31T11:16:20;0.65;;;0.20;;
51764;SDS011;37835;53.256;6.456;2023-07-31T11:18:48;0.52;;;0.10;;
51764;SDS011;37835;53.256;6.456;2023-07-31T11:21:15;0.65;;;0.10;;
51764;SDS011;37835;53.256;6.456;2023-07-31T11:23:45;1.00;;;0.10;;
51764;SDS011;37835;53.256;6.456;2023-07-31T11:26:12;0.93;;;0.20;;
51764;SDS011;37835;53.256;6.456;2023-07-31T11:28:38;0.65;;;0.30;;
51764;SDS011;37835;53.256;6.456;2023-07-31T11:31:04;1.17;;;0.30;;
51764;SDS011;37835;53.256;6.456;2023-07-31T11:33:30;0.22;;;0.10;;
51764;SDS011;37835;53.256;6.456;2023-07-31T11:35:56;1.98;;;0.30;;
51764;SDS011;37835;53.256;6.456;2023-07-31T11:38:25;0.98;;;0.38;;
51764;SDS011;37835;53.256;6.456;2023-07-31T11:40:53;1.97;;;0.37;;
51764;SDS011;37835;53.256;6.456;2023-07-31T11:43:20;0.70;;;0.35;;
51764;SDS011;37835;53.256;6.456;2023-07-31T11:45:47;1.52;;;0.60;;
51764;SDS011;37835;53.256;6.456;2023-07-31T11:48:20;0.50;;;0.50;;
51764;SDS011;37835;53.256;6.456;2023-07-31T11:50:47;2.08;;;0.50;;
51764;SDS011;37835;53.256;6.456;2023-07-31T11:53:14;2.10;;;0.60;;
51764;SDS011;37835;53.256;6.456;2023-07-31T11:55:42;1.15;;;0.52;;
51764;SDS011;37835;53.256;6.456;2023-07-31T11:58:08;0.50;;;0.35;;
51764;SDS011;37835;53.256;6.456;2023-07-31T12:00:34;2.17;;;0.70;;
51764;SDS011;37835;53.256;6.456;2023-07-31T12:03:00;1.50;;;0.57;;
51764;SDS011;37835;53.256;6.456;2023-07-31T12:05:26;2.30;;;0.98;;
51764;SDS011;37835;53.256;6.456;2023-07-31T12:07:54;2.33;;;0.80;;
51764;SDS011;37835;53.256;6.456;2023-07-31T12:13:06;1.77;;;1.00;;
51764;SDS011;37835;53.256;6.456;2023-07-31T12:18:10;1.88;;;0.95;;
51764;SDS011;37835;53.256;6.456;2023-07-31T12:20:44;1.33;;;0.80;;
51764;SDS011;37835;53.256;6.456;2023-07-31T12:23:17;2.70;;;0.85;;
51764;SDS011;37835;53.256;6.456;2023-07-31T12:26:15;0.77;;;0.60;;
51764;SDS011;37835;53.256;6.456;2023-07-31T12:28:40;0.80;;;0.65;;
51764;SDS011;37835;53.256;6.456;2023-07-31T12:31:11;1.35;;;0.90;;
51764;SDS011;37835;53.256;6.456;2023-07-31T12:33:39;3.20;;;0.85;;
51764;SDS011;37835;53.256;6.456;2023-07-31T12:36:12;2.42;;;1.17;;
51764;SDS011;37835;53.256;6.456;2023-07-31T12:38:39;2.05;;;0.90;;
51764;SDS011;37835;53.256;6.456;2023-07-31T12:41:05;1.48;;;0.70;;
51764;SDS011;37835;53.256;6.456;2023-07-31T12:43:34;2.15;;;1.13;;
51764;SDS011;37835;53.256;6.456;2023-07-31T12:46:01;2.00;;;0.80;;
51764;SDS011;37835;53.256;6.456;2023-07-31T12:48:27;2.47;;;0.90;;
51764;SDS011;37835;53.256;6.456;2023-07-31T12:50:52;3.83;;;1.15;;
51764;SDS011;37835;53.256;6.456;2023-07-31T12:53:18;2.88;;;0.98;;
51764;SDS011;37835;53.256;6.456;2023-07-31T12:55:43;2.28;;;0.70;;
51764;SDS011;37835;53.256;6.456;2023-07-31T12:58:09;2.97;;;0.85;;
51764;SDS011;37835;53.256;6.456;2023-07-31T13:00:35;1.73;;;0.70;;
51764;SDS011;37835;53.256;6.456;2023-07-31T13:03:00;2.08;;;0.80;;
51764;SDS011;37835;53.256;6.456;2023-07-31T13:05:26;2.30;;;1.00;;
51764;SDS011;37835;53.256;6.456;2023-07-31T13:07:53;3.17;;;1.17;;
51764;SDS011;37835;53.256;6.456;2023-07-31T13:10:18;2.67;;;0.93;;
51764;SDS011;37835;53.256;6.456;2023-07-31T13:12:44;3.88;;;0.95;;
51764;SDS011;37835;53.256;6.456;2023-07-31T13:15:10;8.02;;;1.80;;
51764;SDS011;37835;53.256;6.456;2023-07-31T13:17:37;4.55;;;1.50;;
51764;SDS011;37835;53.256;6.456;2023-07-31T13:20:03;3.13;;;1.60;;
51764;SDS011;37835;53.256;6.456;2023-07-31T13:22:29;7.03;;;2.40;;
51764;SDS011;37835;53.256;6.456;2023-07-31T13:24:54;8.48;;;1.98;;
51764;SDS011;37835;53.256;6.456;2023-07-31T13:27:20;5.88;;;1.83;;
51764;SDS011;37835;53.256;6.456;2023-07-31T13:29:47;8.65;;;1.90;;
51764;SDS011;37835;53.256;6.456;2023-07-31T13:32:21;5.93;;;1.70;;
51764;SDS011;37835;53.256;6.456;2023-07-31T13:34:47;6.63;;;2.00;;
51764;SDS011;37835;53.256;6.456;2023-07-31T13:37:13;6.88;;;2.20;;
51764;SDS011;37835;53.256;6.456;2023-07-31T13:39:39;10.05;;;2.65;;
51764;SDS011;37835;53.256;6.456;2023-07-31T13:42:06;6.15;;;2.28;;
51764;SDS011;37835;53.256;6.456;2023-07-31T13:44:36;11.45;;;2.53;;
51764;SDS011;37835;53.256;6.456;2023-07-31T13:47:05;11.60;;;2.28;;
51764;SDS011;37835;53.256;6.456;2023-07-31T13:49:31;9.48;;;2.10;;
51764;SDS011;37835;53.256;6.456;2023-07-31T13:51:57;6.72;;;1.65;;
51764;SDS011;37835;53.256;6.456;2023-07-31T13:54:23;13.35;;;2.55;;
51764;SDS011;37835;53.256;6.456;2023-07-31T13:56:49;5.15;;;2.13;;
51764;SDS011;37835;53.256;6.456;2023-07-31T13:59:15;8.35;;;2.10;;
51764;SDS011;37835;53.256;6.456;2023-07-31T14:01:41;4.88;;;2.15;;
51764;SDS011;37835;53.256;6.456;2023-07-31T14:04:08;5.63;;;2.10;;
51764;SDS011;37835;53.256;6.456;2023-07-31T14:06:33;4.55;;;2.03;;
51764;SDS011;37835;53.256;6.456;2023-07-31T14:08:59;5.25;;;2.20;;
51764;SDS011;37835;53.256;6.456;2023-07-31T14:11:24;6.43;;;2.53;;
51764;SDS011;37835;53.256;6.456;2023-07-31T14:13:50;11.20;;;2.25;;
51764;SDS011;37835;53.256;6.456;2023-07-31T14:16:16;11.90;;;2.40;;
51764;SDS011;37835;53.256;6.456;2023-07-31T14:18:42;5.57;;;2.00;;
51764;SDS011;37835;53.256;6.456;2023-07-31T14:21:08;3.97;;;1.98;;
51764;SDS011;37835;53.256;6.456;2023-07-31T14:23:34;8.40;;;2.13;;
51764;SDS011;37835;53.256;6.456;2023-07-31T14:25:59;9.27;;;2.75;;
51764;SDS011;37835;53.256;6.456;2023-07-31T14:28:25;9.98;;;2.65;;
51764;SDS011;37835;53.256;6.456;2023-07-31T14:30:50;9.25;;;2.33;;
51764;SDS011;37835;53.256;6.456;2023-07-31T14:33:16;4.55;;;2.33;;
51764;SDS011;37835;53.256;6.456;2023-07-31T14:35:42;6.97;;;2.67;;
51764;SDS011;37835;53.256;6.456;2023-07-31T14:38:07;8.10;;;3.30;;
51764;SDS011;37835;53.256;6.456;2023-07-31T14:40:33;6.43;;;2.63;;
51764;SDS011;37835;53.256;6.456;2023-07-31T14:42:58;9.07;;;2.60;;
51764;SDS011;37835;53.256;6.456;2023-07-31T14:45:24;8.93;;;3.20;;
51764;SDS011;37835;53.256;6.456;2023-07-31T14:47:50;7.53;;;2.95;;
51764;SDS011;37835;53.256;6.456;2023-07-31T14:50:15;7.60;;;3.08;;
51764;SDS011;37835;53.256;6.456;2023-07-31T14:52:41;8.40;;;2.88;;